Time;durP1;ratioP1;P1;durP2;ratioP2;P2;SDS_P1;SDS_P2;PMS_P1;PMS_P2;Temp;Humidity;BMP_temperature;BMP_pressure;BME280_temperature;BME280_humidity;BME280_pressure;Samples;Min_cycle;Max_cycle;Signal;HPM_P1;HPM_P2
2024/03/02 00:01:00;;;;;;;12.95;8.32;;;;;;;;;;4910653;29;20044;-85
2024/03/02 00:03:45;;;;;;;15.90;9.23;;;;;;;;;;4911358;29;20059;-86
2024/03/02 00:06:30;;;;;;;14.82;8.35;;;;;;;;;;4916810;29;20487;-85
2024/03/02 00:09:16;;;;;;;18.67;9.48;;;;;;;;;;4917511;29;20158;-85
2024/03/02 00:12:01;;;;;;;15.20;9.50;;;;;;;;;;4917116;29;20024;-86
2024/03/02 00:14:46;;;;;;;16.25;10.95;;;;;;;;;;4917891;29;20415;-85
2024/03/02 00:17:31;;;;;;;15.63;8.50;;;;;;;;;;4924147;29;20042;-86
2024/03/02 00:20:18;;;;;;;13.77;8.93;;;;;;;;;;4929428;29;20055;-85
2024/03/02 00:23:04;;;;;;;13.48;8.13;;;;;;;;;;4915938;29;20036;-85
2024/03/02 00:25:53;;;;;;;16.40;9.38;;;;;;;;;;4911421;29;20028;-86
2024/03/02 00:28:39;;;;;;;14.68;9.10;;;;;;;;;;4915426;29;20031;-85
2024/03/02 00:31:25;;;;;;;15.15;9.50;;;;;;;;;;4909705;29;20055;-86
2024/03/02 00:34:12;;;;;;;16.38;9.77;;;;;;;;;;4915969;29;20406;-85
2024/03/02 00:36:59;;;;;;;13.82;8.10;;;;;;;;;;4915845;29;20106;-85
2024/03/02 00:39:48;;;;;;;16.27;8.52;;;;;;;;;;4913756;29;20062;-85
2024/03/02 00:42:33;;;;;;;12.53;7.70;;;;;;;;;;4928048;29;20030;-85
2024/03/02 00:45:19;;;;;;;13.52;8.00;;;;;;;;;;4915718;29;20427;-85
2024/03/02 00:48:04;;;;;;;14.77;7.43;;;;;;;;;;4928202;29;20054;-85
2024/03/02 00:50:52;;;;;;;14.63;8.25;;;;;;;;;;4927400;29;20027;-85
2024/03/02 00:53:38;;;;;;;15.20;8.02;;;;;;;;;;4915253;29;20040;-85
2024/03/02 00:56:24;;;;;;;13.63;8.18;;;;;;;;;;4899621;29;20060;-86
2024/03/02 00:59:10;;;;;;;13.90;7.45;;;;;;;;;;4914525;29;20398;-85
2024/03/02 01:02:20;;;;;;;13.63;8.23;;;;;;;;;;4914009;29;20023;-85
2024/03/02 01:05:05;;;;;;;;;;;;;;;;;;4909961;29;20035;-85
2024/03/02 01:07:50;;;;;;;14.93;7.90;;;;;;;;;;4909614;29;19915;-86
2024/03/02 01:10:36;;;;;;;13.82;7.93;;;;;;;;;;4910866;29;20037;-86
2024/03/02 01:13:22;;;;;;;12.57;7.63;;;;;;;;;;4915306;29;20028;-86
2024/03/02 01:16:07;;;;;;;12.57;7.65;;;;;;;;;;4914833;29;20564;-87
2024/03/02 01:18:52;;;;;;;11.38;7.00;;;;;;;;;;4913068;29;20134;-86
2024/03/02 01:21:38;;;;;;;11.63;6.63;;;;;;;;;;4909237;29;20032;-86
2024/03/02 01:24:23;;;;;;;16.17;7.30;;;;;;;;;;4917974;29;20031;-85
2024/03/02 01:27:08;;;;;;;16.15;7.47;;;;;;;;;;4918788;29;20024;-85
2024/03/02 01:29:54;;;;;;;12.98;7.07;;;;;;;;;;4919353;29;20036;-86
2024/03/02 01:32:40;;;;;;;12.43;6.63;;;;;;;;;;4919223;29;20031;-85
2024/03/02 01:35:26;;;;;;;14.43;7.55;;;;;;;;;;4950666;29;20019;-86
2024/03/02 01:38:12;;;;;;;12.70;7.05;;;;;;;;;;4952126;29;20071;-85
2024/03/02 01:40:58;;;;;;;10.35;6.45;;;;;;;;;;4939506;29;20035;-86
2024/03/02 01:43:43;;;;;;;11.15;6.50;;;;;;;;;;4930004;28;20079;-85
2024/03/02 01:46:29;;;;;;;11.15;6.68;;;;;;;;;;4916433;29;20028;-86
2024/03/02 01:49:14;;;;;;;11.52;5.97;;;;;;;;;;4915784;29;20159;-85
2024/03/02 01:52:00;;;;;;;11.60;7.40;;;;;;;;;;4914678;29;20019;-86
2024/03/02 01:54:45;;;;;;;12.02;6.80;;;;;;;;;;4893391;29;20031;-86
2024/03/02 01:57:31;;;;;;;11.05;6.28;;;;;;;;;;4909502;29;20150;-85
2024/03/02 02:00:17;;;;;;;12.38;6.88;;;;;;;;;;4896115;29;20032;-85
2024/03/02 02:03:02;;;;;;;10.43;6.78;;;;;;;;;;4909294;29;20102;-85
2024/03/02 02:05:48;;;;;;;13.38;6.95;;;;;;;;;;4918643;29;20022;-85
2024/03/02 02:08:33;;;;;;;11.80;6.90;;;;;;;;;;4913887;29;20439;-86
2024/03/02 02:11:18;;;;;;;9.70;6.38;;;;;;;;;;4929147;29;20545;-86
2024/03/02 02:14:06;;;;;;;9.85;6.97;;;;;;;;;;4916386;29;20039;-85
2024/03/02 02:16:52;;;;;;;11.43;6.38;;;;;;;;;;4918679;29;20255;-86
2024/03/02 02:19:40;;;;;;;13.63;7.35;;;;;;;;;;4917858;29;20554;-86
2024/03/02 02:22:25;;;;;;;10.30;6.57;;;;;;;;;;4930882;29;20416;-86
2024/03/02 02:25:10;;;;;;;10.63;6.65;;;;;;;;;;4917829;29;20554;-86
2024/03/02 02:27:56;;;;;;;11.65;6.95;;;;;;;;;;4916939;29;20035;-86
2024/03/02 02:30:45;;;;;;;12.70;6.80;;;;;;;;;;4916298;29;20110;-86
2024/03/02 02:33:30;;;;;;;12.32;6.72;;;;;;;;;;4914939;29;20091;-86
2024/03/02 02:36:15;;;;;;;10.82;6.32;;;;;;;;;;4918282;29;20439;-86
2024/03/02 02:39:06;;;;;;;11.57;7.07;;;;;;;;;;4917100;29;20665;-86
2024/03/02 02:41:51;;;;;;;10.65;6.88;;;;;;;;;;4911741;29;20028;-86
2024/03/02 02:44:37;;;;;;;11.98;7.03;;;;;;;;;;4917618;29;20027;-86
2024/03/02 02:47:22;;;;;;;12.88;7.45;;;;;;;;;;4918072;29;20122;-86
2024/03/02 02:50:08;;;;;;;10.57;6.28;;;;;;;;;;4916846;29;20019;-85
2024/03/02 02:52:54;;;;;;;11.93;7.32;;;;;;;;;;4917399;29;20031;-86
2024/03/02 02:55:40;;;;;;;11.93;6.68;;;;;;;;;;4917685;29;20051;-87
2024/03/02 02:58:25;;;;;;;12.40;7.15;;;;;;;;;;4915736;29;20024;-86
2024/03/02 03:01:10;;;;;;;12.52;6.97;;;;;;;;;;4919461;29;20191;-86
2024/03/02 03:03:56;;;;;;;10.82;6.32;;;;;;;;;;4920178;29;20027;-86
2024/03/02 03:06:41;;;;;;;11.25;6.47;;;;;;;;;;4920319;29;20038;-86
2024/03/02 03:09:26;;;;;;;12.25;7.72;;;;;;;;;;4920303;29;20067;-86
2024/03/02 03:12:12;;;;;;;11.15;6.68;;;;;;;;;;4905683;29;20024;-86
2024/03/02 03:14:57;;;;;;;13.18;7.55;;;;;;;;;;4906280;29;20497;-86
2024/03/02 03:17:42;;;;;;;15.90;7.85;;;;;;;;;;4918623;29;20030;-86
2024/03/02 03:20:28;;;;;;;13.95;6.82;;;;;;;;;;4919379;29;20043;-85
2024/03/02 03:23:15;;;;;;;10.40;6.88;;;;;;;;;;4920164;29;20023;-87
2024/03/02 03:26:01;;;;;;;12.45;7.82;;;;;;;;;;4919872;29;20114;-86
2024/03/02 03:28:46;;;;;;;12.27;6.60;;;;;;;;;;4919816;29;20108;-86
2024/03/02 03:31:31;;;;;;;14.50;7.53;;;;;;;;;;4912037;29;20028;-86
2024/03/02 03:34:17;;;;;;;12.90;6.88;;;;;;;;;;4910160;29;20388;-86
2024/03/02 03:37:02;;;;;;;11.40;7.15;;;;;;;;;;4919253;29;20024;-87
2024/03/02 03:39:48;;;;;;;10.50;6.75;;;;;;;;;;4919642;29;20114;-86
2024/03/02 03:42:33;;;;;;;13.25;7.20;;;;;;;;;;4921793;29;20024;-86
2024/03/02 03:45:21;;;;;;;15.88;7.63;;;;;;;;;;4917087;29;20519;-86
2024/03/02 03:48:07;;;;;;;13.25;7.47;;;;;;;;;;4932345;29;20020;-86
2024/03/02 03:50:52;;;;;;;14.00;7.13;;;;;;;;;;4918142;29;20031;-86
2024/03/02 03:53:37;;;;;;;13.10;7.28;;;;;;;;;;4919009;29;20039;-86
2024/03/02 03:56:23;;;;;;;12.27;7.03;;;;;;;;;;4918101;29;20047;-86
2024/03/02 03:59:08;;;;;;;11.63;6.72;;;;;;;;;;4918923;29;20070;-86
2024/03/02 04:01:56;;;;;;;12.85;8.38;;;;;;;;;;4931209;29;20027;-86
2024/03/02 04:04:41;;;;;;;13.82;7.40;;;;;;;;;;4910055;29;20027;-87
2024/03/02 04:07:26;;;;;;;15.27;8.40;;;;;;;;;;4901790;29;20106;-87
2024/03/02 04:10:16;;;;;;;12.25;6.50;;;;;;;;;;4924241;29;20032;-86
2024/03/02 04:13:05;;;;;;;13.80;7.22;;;;;;;;;;4897005;29;20092;-86
2024/03/02 04:15:50;;;;;;;13.05;7.35;;;;;;;;;;4909688;29;20066;-86
2024/03/02 04:18:35;;;;;;;11.70;7.05;;;;;;;;;;4900065;29;20031;-86
2024/03/02 04:21:21;;;;;;;14.23;8.32;;;;;;;;;;4915356;29;20083;-86
2024/03/02 04:24:06;;;;;;;16.05;8.77;;;;;;;;;;4928702;29;20020;-86
2024/03/02 04:26:51;;;;;;;13.23;7.80;;;;;;;;;;4914333;29;20051;-86
2024/03/02 04:29:37;;;;;;;15.18;8.27;;;;;;;;;;4915798;29;20039;-86
2024/03/02 04:32:22;;;;;;;14.20;7.60;;;;;;;;;;4915350;29;20051;-86
2024/03/02 04:35:08;;;;;;;14.77;8.15;;;;;;;;;;4910397;29;20036;-86
2024/03/02 04:37:53;;;;;;;15.05;7.75;;;;;;;;;;4903464;29;20067;-86
2024/03/02 04:40:41;;;;;;;13.88;8.18;;;;;;;;;;4927860;29;20028;-86
2024/03/02 04:43:27;;;;;;;15.10;8.18;;;;;;;;;;4914762;29;20023;-86
2024/03/02 04:46:12;;;;;;;14.20;8.43;;;;;;;;;;4902257;29;20051;-86
2024/03/02 04:48:58;;;;;;;13.93;8.25;;;;;;;;;;4928192;29;20031;-86
2024/03/02 04:51:43;;;;;;;12.23;7.28;;;;;;;;;;4913775;29;20036;-86
2024/03/02 04:54:28;;;;;;;15.07;8.48;;;;;;;;;;4911448;29;20057;-86
2024/03/02 04:57:14;;;;;;;13.45;8.38;;;;;;;;;;4923744;29;20497;-86
2024/03/02 04:59:59;;;;;;;17.90;9.40;;;;;;;;;;4896620;29;20448;-86
2024/03/02 05:02:44;;;;;;;14.45;8.10;;;;;;;;;;4906238;29;20024;-86
2024/03/02 05:05:29;;;;;;;15.32;8.57;;;;;;;;;;4928809;29;20027;-86
2024/03/02 05:08:16;;;;;;;14.35;8.13;;;;;;;;;;4914599;29;20031;-86
2024/03/02 05:14:06;;;;;;;12.65;7.45;;;;;;;;;;4909666;29;20044;-86
2024/03/02 05:16:51;;;;;;;13.85;8.10;;;;;;;;;;4914937;29;20586;-86
2024/03/02 05:19:37;;;;;;;16.35;8.55;;;;;;;;;;4914174;29;20035;-85
2024/03/02 05:22:22;;;;;;;15.65;7.97;;;;;;;;;;4909488;29;20028;-86
2024/03/02 05:25:09;;;;;;;15.35;7.88;;;;;;;;;;4909533;29;20024;-86
2024/03/02 05:27:55;;;;;;;14.63;8.43;;;;;;;;;;4896392;29;20032;-86
2024/03/02 05:30:42;;;;;;;13.73;7.55;;;;;;;;;;4911798;29;20023;-86
2024/03/02 05:33:28;;;;;;;16.42;8.73;;;;;;;;;;4922097;29;20087;-86
2024/03/02 05:36:13;;;;;;;16.55;8.48;;;;;;;;;;4914281;29;20495;-87
2024/03/02 05:38:59;;;;;;;17.30;8.02;;;;;;;;;;4914297;29;20130;-86
2024/03/02 05:41:47;;;;;;;16.83;8.98;;;;;;;;;;4914592;29;20032;-86
2024/03/02 05:44:32;;;;;;;13.18;7.97;;;;;;;;;;4913047;29;20120;-87
2024/03/02 05:47:18;;;;;;;14.77;8.23;;;;;;;;;;4914920;29;20031;-87
2024/03/02 05:50:03;;;;;;;14.25;9.00;;;;;;;;;;4913472;29;20311;-86
2024/03/02 05:52:52;;;;;;;15.10;8.32;;;;;;;;;;4915069;29;20027;-86
2024/03/02 05:55:37;;;;;;;14.15;8.27;;;;;;;;;;4914172;29;20032;-87
2024/03/02 06:01:08;;;;;;;15.60;8.73;;;;;;;;;;4899481;29;20103;-86
2024/03/02 06:03:57;;;;;;;14.65;8.88;;;;;;;;;;4923040;29;20387;-87
2024/03/02 06:06:42;;;;;;;13.18;8.25;;;;;;;;;;4896723;29;20050;-87
2024/03/02 06:09:27;;;;;;;16.20;8.80;;;;;;;;;;4914695;29;20059;-86
2024/03/02 06:12:13;;;;;;;16.45;8.82;;;;;;;;;;4911814;29;20574;-85
2024/03/02 06:14:58;;;;;;;14.02;7.90;;;;;;;;;;4900521;29;20052;-86
2024/03/02 06:17:43;;;;;;;14.90;7.63;;;;;;;;;;4915027;29;20031;-86
2024/03/02 06:20:31;;;;;;;19.02;9.98;;;;;;;;;;4912573;29;20032;-86
2024/03/02 06:23:16;;;;;;;15.63;8.43;;;;;;;;;;4913707;29;20039;-87
2024/03/02 06:26:02;;;;;;;15.88;9.77;;;;;;;;;;4905989;29;20160;-87
2024/03/02 06:28:47;;;;;;;16.15;8.63;;;;;;;;;;4914396;29;20127;-87
2024/03/02 06:31:33;;;;;;;13.68;8.10;;;;;;;;;;4913620;29;20027;-86
2024/03/02 06:34:18;;;;;;;14.77;8.30;;;;;;;;;;4913548;29;20486;-86
2024/03/02 06:37:03;;;;;;;15.73;9.27;;;;;;;;;;4927030;29;20031;-86
2024/03/02 06:39:49;;;;;;;15.25;9.75;;;;;;;;;;4912561;29;20027;-87
2024/03/02 06:42:35;;;;;;;18.58;8.85;;;;;;;;;;4914507;29;20031;-86
2024/03/02 06:45:20;;;;;;;18.85;10.02;;;;;;;;;;4907969;29;20071;-86
2024/03/02 06:48:08;;;;;;;16.30;9.93;;;;;;;;;;4908084;29;20036;-86
2024/03/02 06:50:53;;;;;;;17.20;10.57;;;;;;;;;;4928824;29;20050;-86
2024/03/02 06:53:39;;;;;;;17.67;9.40;;;;;;;;;;4904730;29;20087;-87
2024/03/02 06:56:24;;;;;;;16.60;9.90;;;;;;;;;;4900283;29;20024;-86
2024/03/02 06:59:09;;;;;;;18.50;10.75;;;;;;;;;;4934145;29;20042;-86
2024/03/02 07:01:55;;;;;;;17.20;10.10;;;;;;;;;;4936086;29;20020;-86
2024/03/02 07:04:40;;;;;;;19.50;11.00;;;;;;;;;;4920836;29;20031;-86
2024/03/02 07:07:25;;;;;;;17.63;9.98;;;;;;;;;;4908844;29;20036;-86
2024/03/02 07:10:11;;;;;;;17.20;10.25;;;;;;;;;;4922589;29;20042;-86
2024/03/02 07:12:56;;;;;;;16.30;10.05;;;;;;;;;;4927983;29;20095;-86
2024/03/02 07:18:51;;;;;;;15.18;9.38;;;;;;;;;;4909318;29;20032;-86
2024/03/02 07:21:36;;;;;;;15.00;9.60;;;;;;;;;;4911242;29;20031;-86
2024/03/02 07:24:21;;;;;;;16.70;9.05;;;;;;;;;;4910637;29;20499;-86
2024/03/02 07:27:07;;;;;;;17.48;10.10;;;;;;;;;;4911305;29;20036;-86
2024/03/02 07:29:52;;;;;;;13.98;8.88;;;;;;;;;;4916744;29;20147;-86
2024/03/02 07:32:37;;;;;;;15.90;8.63;;;;;;;;;;4924592;29;20752;-86
2024/03/02 07:35:26;;;;;;;16.15;10.07;;;;;;;;;;4910761;29;20061;-87
2024/03/02 07:38:12;;;;;;;15.90;9.60;;;;;;;;;;4911145;29;20024;-86
2024/03/02 07:40:57;;;;;;;16.60;9.15;;;;;;;;;;4911179;29;20726;-87
2024/03/02 07:43:44;;;;;;;16.33;10.27;;;;;;;;;;4896849;29;20044;-86
2024/03/02 07:46:29;;;;;;;16.10;9.95;;;;;;;;;;4922336;29;20144;-86
2024/03/02 07:49:14;;;;;;;15.63;9.15;;;;;;;;;;4905502;29;20040;-86
2024/03/02 07:52:00;;;;;;;14.40;8.45;;;;;;;;;;4910467;29;20083;-86
2024/03/02 07:54:45;;;;;;;17.40;9.63;;;;;;;;;;4923410;29;20032;-87
2024/03/02 07:57:30;;;;;;;16.75;10.18;;;;;;;;;;4910728;29;20043;-86
2024/03/02 08:00:16;;;;;;;16.50;9.23;;;;;;;;;;4896725;29;20040;-86
2024/03/02 08:03:01;;;;;;;15.32;9.35;;;;;;;;;;4896117;29;20107;-85
2024/03/02 08:05:46;;;;;;;15.07;9.77;;;;;;;;;;4908262;29;20040;-85
2024/03/02 08:08:32;;;;;;;16.73;8.90;;;;;;;;;;4910171;29;20053;-86
2024/03/02 08:11:17;;;;;;;14.65;8.35;;;;;;;;;;4909872;29;20116;-87
2024/03/02 08:14:03;;;;;;;13.70;8.45;;;;;;;;;;4909538;29;20063;-86
2024/03/02 08:16:48;;;;;;;13.65;8.15;;;;;;;;;;4904219;29;20044;-87
2024/03/02 08:19:33;;;;;;;12.48;6.88;;;;;;;;;;4890748;29;20036;-86
2024/03/02 08:22:19;;;;;;;15.25;8.60;;;;;;;;;;4885285;29;20025;-86
2024/03/02 08:25:05;;;;;;;12.65;7.88;;;;;;;;;;4891362;29;20029;-86
2024/03/02 08:27:50;;;;;;;11.73;7.75;;;;;;;;;;4890639;29;20392;-87
2024/03/02 08:30:35;;;;;;;11.77;7.45;;;;;;;;;;4890707;29;20508;-87
2024/03/02 08:33:20;;;;;;;12.45;6.78;;;;;;;;;;4890630;29;20036;-87
2024/03/02 08:36:06;;;;;;;10.55;6.53;;;;;;;;;;4872163;29;20045;-87
2024/03/02 08:38:51;;;;;;;13.63;6.85;;;;;;;;;;4888455;29;20037;-87
2024/03/02 08:41:36;;;;;;;11.63;6.90;;;;;;;;;;4904203;29;20028;-87
2024/03/02 08:44:22;;;;;;;10.60;5.90;;;;;;;;;;4906246;29;20091;-87
2024/03/02 08:47:07;;;;;;;10.23;6.20;;;;;;;;;;4890414;29;20029;-86
2024/03/02 08:49:53;;;;;;;11.10;7.30;;;;;;;;;;4890948;29;20037;-85
2024/03/02 08:52:38;;;;;;;10.57;6.47;;;;;;;;;;4890809;29;20100;-85
2024/03/02 08:55:23;;;;;;;9.90;6.63;;;;;;;;;;4891448;29;20164;-85
2024/03/02 08:58:09;;;;;;;9.75;6.00;;;;;;;;;;4878476;29;20016;-85
2024/03/02 09:00:56;;;;;;;11.13;6.63;;;;;;;;;;4890196;29;20036;-85
2024/03/02 09:03:44;;;;;;;9.82;6.47;;;;;;;;;;4891375;29;20040;-85
2024/03/02 09:06:29;;;;;;;8.77;5.32;;;;;;;;;;4885574;29;20189;-85
2024/03/02 09:09:14;;;;;;;8.85;5.50;;;;;;;;;;4880781;29;20101;-86
2024/03/02 09:12:03;;;;;;;11.70;5.93;;;;;;;;;;4889868;29;20089;-86
2024/03/02 09:14:48;;;;;;;10.45;6.88;;;;;;;;;;4898379;29;20467;-85
2024/03/02 09:17:33;;;;;;;9.40;5.45;;;;;;;;;;4883032;29;20036;-86
2024/03/02 09:20:19;;;;;;;7.40;5.40;;;;;;;;;;4913542;29;20383;-85
2024/03/02 09:23:04;;;;;;;7.25;5.40;;;;;;;;;;4927466;29;20024;-86
2024/03/02 09:25:49;;;;;;;8.35;4.80;;;;;;;;;;4913000;29;20039;-85
2024/03/02 09:28:34;;;;;;;8.07;4.75;;;;;;;;;;4914549;29;20352;-85
2024/03/02 09:31:20;;;;;;;9.15;5.97;;;;;;;;;;4914886;29;20086;-86
2024/03/02 09:34:05;;;;;;;11.05;5.82;;;;;;;;;;4910980;29;20027;-85
2024/03/02 09:36:51;;;;;;;8.80;4.45;;;;;;;;;;4915008;29;20039;-85
2024/03/02 09:39:36;;;;;;;6.57;4.40;;;;;;;;;;4908091;29;20115;-85
2024/03/02 09:42:22;;;;;;;6.85;4.00;;;;;;;;;;4896879;29;20036;-85
2024/03/02 09:45:08;;;;;;;6.03;4.03;;;;;;;;;;4914629;29;20483;-85
2024/03/02 09:47:54;;;;;;;8.32;3.67;;;;;;;;;;4897061;29;20035;-83
2024/03/02 09:50:40;;;;;;;6.97;3.65;;;;;;;;;;4923136;29;20062;-86
2024/03/02 09:53:30;;;;;;;4.95;3.35;;;;;;;;;;4936841;29;20032;-85
2024/03/02 09:56:16;;;;;;;5.83;3.27;;;;;;;;;;4938558;29;20019;-85
2024/03/02 09:59:01;;;;;;;4.95;3.30;;;;;;;;;;4918645;29;20035;-85
2024/03/02 10:02:00;;;;;;;5.70;3.50;;;;;;;;;;4917404;29;20069;-86
2024/03/02 10:04:46;;;;;;;5.25;3.15;;;;;;;;;;4897688;29;20099;-84
2024/03/02 10:07:31;;;;;;;5.43;3.25;;;;;;;;;;4897004;29;20055;-85
2024/03/02 10:10:17;;;;;;;4.00;3.20;;;;;;;;;;4913263;29;20030;-85
2024/03/02 10:13:12;;;;;;;4.78;2.97;;;;;;;;;;4913580;29;20031;-86
2024/03/02 10:16:11;;;;;;;6.03;3.28;;;;;;;;;;4917096;29;20058;-85
2024/03/02 10:18:56;;;;;;;4.95;3.40;;;;;;;;;;4915745;29;20301;-87
2024/03/02 10:21:42;;;;;;;4.82;3.00;;;;;;;;;;4896286;29;20092;-87
2024/03/02 10:24:34;;;;;;;6.18;3.78;;;;;;;;;;4919855;29;20122;-87
2024/03/02 10:27:23;;;;;;;4.68;3.33;;;;;;;;;;4918803;29;20063;-85
2024/03/02 10:30:10;;;;;;;5.07;3.35;;;;;;;;;;4916124;29;20478;-84
2024/03/02 10:32:56;;;;;;;4.68;2.72;;;;;;;;;;4916375;29;20048;-85
2024/03/02 10:35:42;;;;;;;6.65;3.42;;;;;;;;;;4917665;29;20035;-84
2024/03/02 10:38:27;;;;;;;5.22;3.17;;;;;;;;;;4917658;29;20050;-85
2024/03/02 10:41:16;;;;;;;5.25;3.22;;;;;;;;;;4911630;29;20130;-83
2024/03/02 10:44:03;;;;;;;3.72;2.95;;;;;;;;;;4908420;29;20036;-83
2024/03/02 10:46:49;;;;;;;5.53;3.08;;;;;;;;;;4917563;29;20491;-83
2024/03/02 10:49:34;;;;;;;4.65;3.03;;;;;;;;;;4916351;29;20503;-85
2024/03/02 10:52:22;;;;;;;3.55;2.50;;;;;;;;;;4911211;29;20126;-84
2024/03/02 10:55:09;;;;;;;5.75;3.22;;;;;;;;;;4911785;29;20043;-85
2024/03/02 10:57:56;;;;;;;4.82;2.92;;;;;;;;;;4898278;29;20052;-83
2024/03/02 11:00:42;;;;;;;3.97;3.10;;;;;;;;;;4920816;29;20063;-85
2024/03/02 11:03:29;;;;;;;4.63;3.38;;;;;;;;;;4917186;29;20360;-84
2024/03/02 11:06:14;;;;;;;4.63;2.85;;;;;;;;;;4916826;29;20024;-83
2024/03/02 11:09:02;;;;;;;4.13;2.40;;;;;;;;;;4914108;29;20114;-84
2024/03/02 11:12:02;;;;;;;2.88;2.38;;;;;;;;;;4910378;29;20024;-84
2024/03/02 11:14:47;;;;;;;2.15;1.70;;;;;;;;;;4897796;29;20036;-84
2024/03/02 11:17:33;;;;;;;2.03;1.45;;;;;;;;;;4935717;29;20094;-83
2024/03/02 11:20:20;;;;;;;2.88;1.30;;;;;;;;;;4910231;29;20048;-84
2024/03/02 11:23:06;;;;;;;2.35;1.30;;;;;;;;;;4898022;29;20027;-83
2024/03/02 11:25:51;;;;;;;3.03;2.13;;;;;;;;;;4898032;29;20028;-84
2024/03/02 11:28:37;;;;;;;3.25;2.20;;;;;;;;;;4913894;29;20475;-82
2024/03/02 11:31:22;;;;;;;3.28;2.22;;;;;;;;;;4916252;29;20032;-83
2024/03/02 11:34:17;;;;;;;2.35;1.17;;;;;;;;;;4907947;29;20367;-82
2024/03/02 11:37:03;;;;;;;3.03;1.70;;;;;;;;;;4929969;29;20506;-82
2024/03/02 11:39:49;;;;;;;1.83;1.23;;;;;;;;;;4915978;29;20035;-84
2024/03/02 11:42:34;;;;;;;1.27;1.00;;;;;;;;;;4902031;29;20741;-83
2024/03/02 11:45:23;;;;;;;1.73;1.10;;;;;;;;;;4931907;29;20136;-83
2024/03/02 11:48:13;;;;;;;1.38;1.08;;;;;;;;;;4935683;29;20481;-84
2024/03/02 11:50:59;;;;;;;1.67;1.10;;;;;;;;;;4901535;29;20468;-84
2024/03/02 11:53:45;;;;;;;2.30;1.60;;;;;;;;;;4916634;29;20047;-85
2024/03/02 11:56:31;;;;;;;1.40;1.30;;;;;;;;;;4916990;29;20038;-84
2024/03/02 11:59:16;;;;;;;1.88;1.20;;;;;;;;;;4915189;29;20043;-85
2024/03/02 12:02:02;;;;;;;5.32;1.55;;;;;;;;;;4912090;29;20031;-85
2024/03/02 12:04:48;;;;;;;1.73;1.20;;;;;;;;;;4914679;29;20057;-84
2024/03/02 12:07:34;;;;;;;1.58;1.05;;;;;;;;;;4914443;29;20032;-84
2024/03/02 12:10:19;;;;;;;1.35;0.95;;;;;;;;;;4915924;29;20036;-84
2024/03/02 12:13:07;;;;;;;1.13;0.90;;;;;;;;;;4908118;29;20075;-84
2024/03/02 12:15:56;;;;;;;2.08;1.08;;;;;;;;;;4911790;29;20052;-84
2024/03/02 12:18:42;;;;;;;1.30;1.20;;;;;;;;;;4915173;29;20070;-82
2024/03/02 12:21:28;;;;;;;1.67;1.17;;;;;;;;;;4927146;29;20554;-84
2024/03/02 12:24:13;;;;;;;2.08;1.17;;;;;;;;;;4915758;29;20141;-83
2024/03/02 12:26:58;;;;;;;1.70;1.35;;;;;;;;;;4915342;29;20554;-83
2024/03/02 12:29:44;;;;;;;2.15;1.48;;;;;;;;;;4915158;29;20492;-83
2024/03/02 12:32:29;;;;;;;3.20;1.50;;;;;;;;;;4914084;29;20142;-84
2024/03/02 12:35:15;;;;;;;2.20;1.42;;;;;;;;;;4915256;29;20498;-84
2024/03/02 12:38:00;;;;;;;1.73;1.52;;;;;;;;;;4913970;29;20047;-86
2024/03/02 12:40:47;;;;;;;2.20;1.50;;;;;;;;;;4902013;29;20032;-86
2024/03/02 12:43:33;;;;;;;3.53;1.70;;;;;;;;;;4915460;29;20610;-86
2024/03/02 12:46:19;;;;;;;1.98;1.67;;;;;;;;;;4914714;29;20134;-87
2024/03/02 12:49:07;;;;;;;2.45;1.80;;;;;;;;;;4928582;29;20031;-86
2024/03/02 12:51:53;;;;;;;1.65;1.50;;;;;;;;;;4896512;29;20028;-87
2024/03/02 12:54:39;;;;;;;2.15;1.13;;;;;;;;;;4903933;29;20434;-87
2024/03/02 12:57:28;;;;;;;5.75;3.10;;;;;;;;;;4915062;29;20431;-86
2024/03/02 13:00:13;;;;;;;4.05;2.40;;;;;;;;;;4928402;29;20027;-85
2024/03/02 13:03:02;;;;;;;2.15;1.52;;;;;;;;;;4896932;29;20088;-86
2024/03/02 13:05:50;;;;;;;2.90;1.90;;;;;;;;;;4913524;29;20028;-86
2024/03/02 13:08:36;;;;;;;3.63;1.40;;;;;;;;;;4915327;29;20311;-85
2024/03/02 13:11:23;;;;;;;2.85;1.52;;;;;;;;;;4916278;29;20027;-86
2024/03/02 13:14:10;;;;;;;2.10;1.65;;;;;;;;;;4913913;29;20390;-85
2024/03/02 13:16:57;;;;;;;2.28;1.50;;;;;;;;;;4915370;29;20331;-85
2024/03/02 13:19:55;;;;;;;1.90;1.70;;;;;;;;;;4915166;29;20058;-85
2024/03/02 13:22:41;;;;;;;1.88;1.30;;;;;;;;;;4915086;29;20024;-85
2024/03/02 13:25:26;;;;;;;1.92;1.55;;;;;;;;;;4915027;29;20032;-85
2024/03/02 13:28:12;;;;;;;1.88;1.48;;;;;;;;;;4927057;29;20031;-85
2024/03/02 13:30:58;;;;;;;2.72;1.60;;;;;;;;;;4916194;29;20036;-85
2024/03/02 13:33:43;;;;;;;1.90;1.65;;;;;;;;;;4914827;29;20023;-85
2024/03/02 13:36:28;;;;;;;3.25;1.50;;;;;;;;;;4914461;29;20039;-86
2024/03/02 13:39:15;;;;;;;1.63;1.50;;;;;;;;;;4915385;29;20114;-86
2024/03/02 13:42:04;;;;;;;3.95;1.90;;;;;;;;;;4915001;29;20111;-86
2024/03/02 13:44:51;;;;;;;2.75;1.40;;;;;;;;;;4912944;29;20032;-86
2024/03/02 13:47:36;;;;;;;2.72;1.48;;;;;;;;;;4914812;29;20024;-86
2024/03/02 13:50:21;;;;;;;1.95;1.50;;;;;;;;;;4912041;29;20169;-87
2024/03/02 13:53:10;;;;;;;1.95;1.65;;;;;;;;;;4927353;29;20024;-87
2024/03/02 13:55:55;;;;;;;3.63;1.80;;;;;;;;;;4909261;29;20025;-87
2024/03/02 13:58:43;;;;;;;3.05;1.48;;;;;;;;;;4900707;29;20451;-87
2024/03/02 14:01:28;;;;;;;2.50;1.60;;;;;;;;;;4920742;29;20399;-86
2024/03/02 14:04:13;;;;;;;2.47;1.65;;;;;;;;;;4936763;29;20035;-87
2024/03/02 14:06:59;;;;;;;4.03;1.35;;;;;;;;;;4922545;29;20430;-86
2024/03/02 14:09:45;;;;;;;2.05;1.40;;;;;;;;;;4920896;29;20028;-86
2024/03/02 14:12:30;;;;;;;1.73;1.50;;;;;;;;;;4929106;29;20042;-87
2024/03/02 14:15:16;;;;;;;2.20;1.70;;;;;;;;;;4917513;29;20499;-87
2024/03/02 14:18:52;;;;;;;;;;;;;;;;;;;;;
2024/03/02 14:21:45;;;;;;;2.53;1.52;;;;;;;;;;4895878;29;20328;-86
2024/03/02 14:24:30;;;;;;;1.30;1.15;;;;;;;;;;4900293;29;20464;-86
2024/03/02 14:27:16;;;;;;;2.42;1.20;;;;;;;;;;4899721;29;20562;-87
2024/03/02 14:30:01;;;;;;;1.95;1.10;;;;;;;;;;4930353;29;20035;-87
2024/03/02 14:32:46;;;;;;;1.63;1.52;;;;;;;;;;4905671;29;20134;-87
2024/03/02 14:35:32;;;;;;;4.00;1.30;;;;;;;;;;4919172;29;22277;-87
2024/03/02 14:38:17;;;;;;;2.15;1.30;;;;;;;;;;4932155;29;20026;-87
2024/03/02 14:41:03;;;;;;;3.17;1.60;;;;;;;;;;4918005;29;20042;-87
2024/03/02 14:43:49;;;;;;;3.45;1.38;;;;;;;;;;4918025;29;20134;-86
2024/03/02 14:46:34;;;;;;;2.22;1.55;;;;;;;;;;4917886;29;20028;-86
2024/03/02 14:49:20;;;;;;;3.05;1.25;;;;;;;;;;4899218;29;20142;-86
2024/03/02 14:52:05;;;;;;;1.42;1.10;;;;;;;;;;4917057;29;20028;-87
2024/03/02 14:54:50;;;;;;;3.08;1.20;;;;;;;;;;4916520;29;20028;-87
2024/03/02 14:57:39;;;;;;;1.83;1.35;;;;;;;;;;4918364;29;20490;-86
2024/03/02 15:00:24;;;;;;;5.35;1.27;;;;;;;;;;4918049;29;20067;-87
2024/03/02 15:03:11;;;;;;;1.80;1.33;;;;;;;;;;4918141;29;20034;-87
2024/03/02 15:05:57;;;;;;;2.38;1.05;;;;;;;;;;4925537;29;20075;-87
2024/03/02 15:08:42;;;;;;;3.10;1.60;;;;;;;;;;4933247;29;20024;-87
2024/03/02 15:11:28;;;;;;;2.72;1.30;;;;;;;;;;4928983;29;20031;-86
2024/03/02 15:14:13;;;;;;;1.42;1.23;;;;;;;;;;4919229;29;20032;-86
2024/03/02 15:16:59;;;;;;;2.55;1.40;;;;;;;;;;4921462;29;20046;-87
2024/03/02 15:19:45;;;;;;;2.80;1.65;;;;;;;;;;4919494;29;20043;-87
2024/03/02 15:22:30;;;;;;;3.70;1.40;;;;;;;;;;4919306;29;20040;-87
2024/03/02 15:25:16;;;;;;;1.40;1.20;;;;;;;;;;4919752;29;20023;-86
2024/03/02 15:28:01;;;;;;;2.60;1.30;;;;;;;;;;4930156;29;20038;-87
2024/03/02 15:30:46;;;;;;;1.90;1.42;;;;;;;;;;4917934;29;20027;-87
2024/03/02 15:33:33;;;;;;;2.78;1.45;;;;;;;;;;4917631;29;20024;-87
2024/03/02 15:36:18;;;;;;;2.28;1.25;;;;;;;;;;4917514;29;20019;-87
2024/03/02 15:39:08;;;;;;;4.05;1.95;;;;;;;;;;4900204;29;20061;-87
2024/03/02 15:41:53;;;;;;;2.53;1.20;;;;;;;;;;4917549;29;20547;-87
2024/03/02 15:44:39;;;;;;;2.50;1.75;;;;;;;;;;4903803;29;20430;-87
2024/03/02 15:47:24;;;;;;;3.72;2.17;;;;;;;;;;4917010;29;20034;-87
2024/03/02 15:50:10;;;;;;;9.10;4.95;;;;;;;;;;4917166;29;20040;-87
2024/03/02 15:52:57;;;;;;;4.20;2.50;;;;;;;;;;4917273;29;20058;-87
2024/03/02 15:55:43;;;;;;;12.25;3.30;;;;;;;;;;4916555;29;20031;-87
2024/03/02 15:58:28;;;;;;;3.67;2.05;;;;;;;;;;4916796;29;20390;-87
2024/03/02 16:01:13;;;;;;;2.83;1.80;;;;;;;;;;4907625;29;20479;-87
2024/03/02 16:03:59;;;;;;;4.13;1.90;;;;;;;;;;4897901;29;20051;-87
2024/03/02 16:06:44;;;;;;;3.47;1.70;;;;;;;;;;4915643;29;20042;-87
2024/03/02 16:09:30;;;;;;;5.60;2.17;;;;;;;;;;4922369;29;20036;-87
2024/03/02 16:12:15;;;;;;;2.58;1.75;;;;;;;;;;5002618;23;20070;-86
2024/03/02 16:15:00;;;;;;;2.92;1.80;;;;;;;;;;4905794;29;20025;-87
2024/03/02 16:17:49;;;;;;;4.43;2.10;;;;;;;;;;4919927;29;20029;-87
2024/03/02 16:20:34;;;;;;;3.10;1.73;;;;;;;;;;4928601;29;20028;-87
2024/03/02 16:23:20;;;;;;;3.45;2.30;;;;;;;;;;4911220;29;20024;-87
2024/03/02 16:26:05;;;;;;;4.55;2.45;;;;;;;;;;4910614;29;20506;-87
2024/03/02 16:28:50;;;;;;;2.95;1.70;;;;;;;;;;4911014;29;20038;-87
2024/03/02 16:31:38;;;;;;;3.20;1.75;;;;;;;;;;4909099;29;20091;-86
2024/03/02 16:34:24;;;;;;;3.70;2.35;;;;;;;;;;4924157;29;20024;-86
2024/03/02 16:37:12;;;;;;;4.28;2.10;;;;;;;;;;4931207;29;20026;-86